Weather observations for the past three days for
Charlevoix, Charlevoix Municipal Airport
Metric (Imperial)
Date Time (edt) Wind (kph) Vis. (km) Weather Sky Cond. Temperature (ºC) Relative Humidity Wind Chill (°C) Heat Index (°C) Pressure Precipitation (cm)
Air Dwpt 6 hour altimeter (cm) sea level (mb) 1 hr 3 hr 6 hr
Max. Min.
09 14:35 W 28 G 41 16.09 Overcast OVC090 14 0 39% 75.06 0.0
09 14:15 W 28 G 39 16.09 Overcast OVC090 12 0 44% 75.06 0.0
09 13:55 W 35 G 43 16.09 Overcast and Breezy OVC090 11 -1 13.3 9.1 44% 75.03 0.0
09 13:35 W 33 G 43 16.09 Overcast and Breezy OVC080 12 0 44% 75.01 0.0
09 13:15 W 30 G 35 16.09 Overcast OVC080 12 1 47% 75.01 0.0
09 12:55 W 26 G 35 16.09 Overcast OVC080 12 1 47% 74.98 0.0
09 12:35 W 24 16.09 Mostly Cloudy BKN080 BKN090 11 2 54% 74.98 0.0
09 12:15 W 33 G 43 16.09 Mostly Cloudy and Breezy FEW075 BKN100 11 2 54% 74.98 0.0
09 11:55 W 30 16.09 Partly Cloudy SCT110 10 3 62% 7 74.96 0.0
09 11:35 W 22 G 35 16.09 A Few Clouds FEW080 10 3 62% 7 74.93 0.0
09 11:15 W 24 G 39 16.09 Mostly Cloudy BKN070 BKN090 9 3 66% 6 74.9 0.0
09 10:55 W 28 G 35 16.09 Mostly Cloudy FEW070 BKN090 9 3 66% 6 74.88 0.0
09 10:35 W 30 G 37 16.09 Mostly Cloudy BKN100 10 5 71% 7 74.85 0.0
09 10:15 W 33 G 44 16.09 Overcast and Breezy OVC100 11 5 67% 74.83 0.0
09 09:55 W 20 G 37 16.09 Overcast OVC100 13 6 63% 74.8 0.0
09 09:35 SW 17 16.09 Overcast OVC100 13 7 67% 74.8 0.0
09 09:15 SW 22 16.09 Mostly Cloudy BKN100 BKN120 13 6 63% 74.78 0.0
09 08:55 SW 24 G 35 16.09 A Few Clouds FEW110 13 6 63% 74.78 0.0
09 08:35 SW 19 G 31 16.09 A Few Clouds FEW110 13 6 63% 74.78 0.0
09 08:15 SW 22 G 37 16.09 A Few Clouds FEW120 13 6 63% 74.78 0.0
09 07:55 S 20 G 43 16.09 A Few Clouds FEW120 12 5 12.7 10.9 63% 74.78 0.0
09 07:35 S 20 G 35 16.09 Fair CLR 12 4 58% 74.78 0.0
09 07:15 S 20 16.09 Fair CLR 12 3 54% 74.78 0.0
09 06:55 S 15 16.09 Fair CLR 12 2 51% 74.78 0.0
09 06:35 S 17 16.09 Fair CLR 12 1 47% 74.83 0.0
09 06:15 S 15 16.09 Partly Cloudy SCT110 12 1 47% 74.83 0.0
09 05:55 S 17 16.09 Partly Cloudy SCT110 12 1 47% 74.85 0.0
09 05:35 S 20 G 31 16.09 A Few Clouds FEW110 12 0 44% 74.88 0.0
09 05:15 S 19 16.09 Mostly Cloudy BKN100 BKN120 13 -1 38% 74.88 0.0
09 04:55 S 17 G 28 16.09 Overcast BKN100 OVC120 13 -2 36% 74.93 0.0
09 04:35 S 20 G 30 16.09 Partly Cloudy SCT120 13 -3 33% 74.93 0.0
09 04:15 S 15 16.09 Fair CLR 12 -3 35% 74.93 0.0
09 03:55 S 15 16.09 Fair CLR 12 -3 35% 74.96 0.0
09 03:35 S 13 16.09 A Few Clouds FEW100 11 -2 41% 74.98 0.0
09 03:15 S 13 16.09 Mostly Cloudy BKN110 11 -2 41% 75.01 0.0
09 02:55 S 13 16.09 Partly Cloudy SCT110 12 -2 38% 75.03 0.0
09 02:35 S 11 16.09 Overcast OVC095 12 -2 38% 75.06 0.0
09 02:15 S 13 16.09 Mostly Cloudy BKN095 BKN120 12 -2 38% 75.08 0.0
09 01:55 S 11 16.09 Mostly Cloudy BKN095 12 -2 12.9 8.3 38% 75.11 0.0
09 01:35 S 11 16.09 Overcast OVC095 12 -2 38% 75.13 0.0
09 01:15 S 11 16.09 Overcast OVC095 12 -2 38% 75.16 0.0
09 00:55 S 11 16.09 Overcast FEW070 OVC095 13 -2 36% 75.18 0.0
09 00:35 S 13 16.09 Overcast OVC095 12 -2 38% 75.21 0.0
09 00:15 S 9 16.09 Overcast OVC095 12 -1 41% 75.23 0.0
08 23:55 S 9 16.09 Overcast OVC095 10 1 54% 9 75.23 0.0
08 23:35 SE 6 16.09 Overcast OVC095 10 1 54% 75.26 0.0
08 23:15 SE 6 16.09 Overcast OVC095 9 1 58% 75.29 0.0
08 22:55 SE 7 16.09 Overcast OVC095 9 1 58% 8 75.29 0.0
08 22:35 SE 7 16.09 Overcast OVC095 9 0 54% 8 75.31 0.0
08 22:15 SE 7 16.09 Overcast OVC095 9 0 54% 8 75.31 0.0
08 21:55 SE 7 16.09 Mostly Cloudy BKN095 8 0 57% 7 75.31 0.0
08 21:35 SE 7 16.09 Mostly Cloudy BKN095 9 0 54% 8 75.31 0.0
08 21:15 SE 9 16.09 Mostly Cloudy BKN095 10 -1 47% 9 75.31 0.0
08 20:55 SE 9 16.09 Overcast OVC095 10 -1 47% 9 75.31 0.0
08 20:35 SE 9 16.09 Overcast OVC095 10 -1 47% 9 75.31 0.0
08 20:15 Calm 16.09 Overcast OVC095 10 -1 47% 75.34 0.0
08 19:55 N 6 16.09 Overcast BKN085 OVC100 9 -1 12.4 9 50% 75.34 0.0
08 19:35 N 9 16.09 Overcast OVC100 9 -1 50% 8 75.36 0.0
08 19:15 N 7 16.09 Overcast OVC100 9 -1 50% 8 75.36 0.0
08 18:55 N 11 16.09 Overcast OVC100 9 -1 50% 8 75.36 0.0
08 18:35 N 9 16.09 Mostly Cloudy BKN100 10 0 50% 9 75.36 0.0
08 18:15 N 9 16.09 A Few Clouds FEW100 11 0 47% 75.39 0.0
08 17:55 NW 13 16.09 Fair CLR 12 0 44% 75.39 0.0
08 17:35 W 13 16.09 Fair CLR 12 0 44% 75.41 0.0
08 17:15 NW 13 16.09 Fair CLR 11 0 47% 75.41 0.0
08 16:55 W 13 16.09 Fair CLR 12 0 44% 75.44 0.0
08 16:35 W 13 16.09 Fair CLR 11 2 54% 75.46 0.0
08 16:15 NW 11 16.09 Fair CLR 12 1 47% 75.49 0.0
08 15:55 NW 15 16.09 Fair CLR 11 2 54% 75.49 0.0
08 15:35 NW 13 16.09 Fair CLR 11 3 58% 75.51 0.0
08 15:15 W 17 16.09 Fair CLR 11 3 58% 75.54 0.0
08 14:55 W 19 16.09 Fair CLR 11 2 54% 75.54 0.0
08 14:35 W 24 16.09 Fair CLR 11 2 54% 75.54 0.0
08 14:15 W 28 G 35 16.09 Fair CLR 12 1 47% 75.54 0.0
08 13:55 W 28 G 37 16.09 Fair CLR 12 1 12.2 2.9 47% 75.57 0.0
08 13:35 W 30 16.09 Fair CLR 11 0 47% 75.57 0.0
08 13:15 W 26 G 35 16.09 Fair CLR 12 1 47% 75.59 0.0
08 12:55 W 24 16.09 Fair CLR 12 0 44% 75.59 0.0
08 12:35 W 26 16.09 Fair CLR 12 0 44% 75.62 0.0
08 12:15 W 20 G 33 16.09 Partly Cloudy SCT085 12 0 44% 75.62 0.0
08 11:55 SW 22 16.09 Mostly Cloudy BKN085 11 -1 44% 75.64 0.0
08 11:35 W 28 G 35 16.09 Overcast OVC085 11 0 47% 75.64 0.0
08 11:15 W 22 16.09 Overcast OVC085 10 1 54% 7 75.64 0.0
08 10:55 W 20 G 31 16.09 Overcast OVC085 10 1 54% 8 75.64 0.0
08 10:35 SW 26 16.09 Mostly Cloudy BKN085 10 1 54% 7 75.64 0.0
08 10:15 SW 24 16.09 Mostly Cloudy BKN085 9 1 58% 6 75.64 0.0
08 09:55 SW 19 G 31 16.09 Overcast OVC085 9 0 54% 7 75.67 0.0
08 09:35 SW 17 G 31 16.09 Mostly Cloudy BKN085 8 1 62% 6 75.67 0.0
08 09:15 Vrbl 11 16.09 Partly Cloudy SCT095 8 1 62% 6 75.67 0.0
08 08:55 S 11 16.09 Mostly Cloudy FEW075 BKN095 7 1 66% 5 75.69 0.0
08 08:35 S 11 16.09 Mostly Cloudy BKN095 6 1 71% 4 75.69 0.0
08 08:15 S 7 16.09 Mostly Cloudy FEW060 SCT080 BKN095 4 1 81% 2 75.69 0.0
08 07:55 SE 6 16.09 Overcast FEW060 BKN070 OVC095 3 0 3.7 1.4 81% 75.69 0.0
08 07:35 SE 6 16.09 Overcast BKN065 OVC080 3 0 81% 75.69 0.0
08 07:15 SE 6 16.09 Mostly Cloudy BKN080 BKN100 2 0 87% 75.69 0.0
08 06:55 S 6 16.09 Partly Cloudy FEW065 SCT090 2 0 87% 75.69 0.0
08 06:35 S 9 16.09 Partly Cloudy SCT065 SCT100 2 0 87% -0 75.69 0.0
08 06:15 Vrbl 4 16.09 Fair CLR 2 0 87% 75.69 0.0
08 05:55 SW 6 16.09 Partly Cloudy FEW070 SCT100 3 0 81% 75.69 0.0
08 05:35 SW 9 16.09 Overcast SCT070 OVC100 3 1 87% 1 75.69 0.0
08 05:15 SW 11 16.09 Overcast SCT070 OVC100 3 1 87% 0 75.72 0.0
08 04:55 SW 13 16.09 Overcast SCT070 OVC100 4 1 81% 1 75.72 0.0
08 04:35 SW 15 16.09 Overcast BKN070 OVC090 3 1 87% -0 75.72 0.0
08 04:15 SW 7 16.09 Mostly Cloudy BKN070 BKN090 3 1 87% 1 75.74 0.0
08 03:55 S 9 16.09 Mostly Cloudy SCT080 BKN090 3 1 87% 1 75.72 0.0
08 03:35 SW 9 16.09 Overcast FEW075 OVC090 3 0 81% 1 75.74 0.0
08 03:15 SW 11 16.09 Overcast FEW075 SCT090 OVC110 3 0 81% 0 75.74 0.0
08 02:55 SW 9 16.09 Partly Cloudy FEW070 SCT110 3 0 81% 1 75.77 0.0
08 02:35 W 11 16.09 Mostly Cloudy SCT070 SCT080 BKN100 3 1 87% 0 75.79 0.0
08 02:15 NW 13 16.09 Mostly Cloudy FEW065 SCT075 BKN100 3 0 81% 0 75.82 0.0
08 01:55 N 17 16.09 Mostly Cloudy SCT070 BKN090 2 -2 6.4 2.3 75% -2 75.82 0.0
08 01:35 S 7 16.09 A Few Clouds FEW090 3 -2 70% 1 75.79 0.0
08 01:15 SW 7 16.09 Fair CLR 3 -2 70% 1 75.79 0.0
08 00:55 W 9 16.09 Fair CLR 3 -2 70% 1 75.82 0.0
08 00:35 SW 9 16.09 Fair CLR 4 -2 65% 2 75.79 0.0
08 00:15 S 7 16.09 Fair CLR 4 -2 65% 2 75.79 0.0
07 23:55 S 7 16.09 Fair CLR 4 -1 70% 2 75.79 0.0
07 23:35 S 7 16.09 Partly Cloudy SCT110 4 -1 70% 2 75.82 0.0
07 23:15 SW 6 16.09 Mostly Cloudy BKN110 5 -1 66% 75.82 0.0
07 22:55 SW 7 16.09 Partly Cloudy SCT110 5 -2 61% 4 75.79 0.0
07 22:35 SW 6 16.09 Overcast OVC100 5 -1 66% 75.79 0.0
07 22:15 S 6 16.09 Overcast OVC100 5 -1 66% 75.79 0.0
07 21:55 SW 6 16.09 Overcast OVC100 5 -1 66% 75.79 0.0
07 21:35 W 9 16.09 Overcast OVC100 5 0 70% 3 75.79 0.0
07 21:15 W 7 16.09 Overcast OVC100 5 0 70% 4 75.79 0.0
07 20:55 W 11 16.09 Overcast OVC100 6 -1 61% 4 75.79 0.0
07 20:35 W 11 16.09 Overcast OVC100 6 -1 61% 4 75.79 0.0
07 20:15 W 13 16.09 Overcast OVC100 6 -1 61% 4 75.77 0.0
07 19:55 W 15 16.09 Overcast OVC100 6 -2 9 6.3 57% 3 75.77 0.0
07 19:35 W 19 G 26 16.09 Overcast OVC090 7 -3 49% 4 75.77 0.0
07 19:15 W 15 16.09 Overcast OVC090 7 -3 49% 5 75.77 0.0
07 18:55 W 22 16.09 Overcast OVC090 7 -4 46% 4 75.77 0.0
07 18:35 W 17 16.09 Overcast OVC090 7 -3 49% 4 75.79 0.0
07 18:15 W 19 16.09 Overcast OVC090 7 -4 46% 4 75.79 0.0
07 17:55 SW 15 16.09 Overcast OVC090 8 -3 46% 6 75.79 0.0
07 17:35 W 19 16.09 Overcast OVC090 8 -3 46% 5 75.79 0.0
07 17:15 W 22 16.09 Overcast OVC090 8 -3 46% 5 75.79 0.0
07 16:55 W 20 16.09 Overcast OVC090 8 -2 50% 5 75.79 0.0
07 16:35 W 22 16.09 Overcast OVC090 8 -2 50% 5 75.79 0.0
07 16:15 W 22 16.09 Overcast OVC090 9 -2 46% 6 75.79 0.0
07 15:55 W 20 16.09 Overcast OVC080 9 -3 43% 6 75.82 0.0
07 15:35 W 20 G 30 16.09 Overcast OVC080 9 -3 43% 6 75.82 0.0
07 15:15 W 20 16.09 Overcast OVC080 8 -2 50% 5 75.82 0.0
07 14:55 W 24 G 30 16.09 Overcast OVC080 8 -3 46% 5 75.82 0.0
07 14:35 W 19 G 31 16.09 Overcast OVC080 8 -2 50% 5 75.84 0.0
07 14:15 W 20 16.09 Overcast OVC080 8 -1 53% 5 75.84 0.0
07 13:55 W 22 16.09 Overcast OVC080 8 -1 9 3 53% 5 75.87 0.0
07 13:35 W 24 16.09 Overcast FEW050 OVC080 8 -1 53% 5 75.87 0.0
07 13:15 W 22 G 33 16.09 Overcast FEW050 OVC080 8 -2 50% 5 75.9 0.0
07 12:55 W 22 G 30 16.09 Overcast OVC080 8 -2 50% 5 75.9 0.0
07 12:35 W 22 16.09 Overcast OVC080 8 -2 50% 5 75.92 0.0
07 12:15 W 22 16.09 Overcast OVC080 8 -2 50% 5 75.92 0.0
07 11:55 W 20 16.09 Overcast OVC080 8 -1 53% 5 75.92 0.0
07 11:35 W 24 16.09 Overcast FEW050 OVC080 7 -1 57% 4 75.95 0.0
07 11:15 W 17 16.09 Overcast OVC080 7 -1 57% 4 75.95 0.0
07 10:55 W 17 16.09 Overcast OVC070 7 -1 57% 4 75.95 0.0
07 10:35 W 15 16.09 Overcast OVC070 6 -1 61% 3 75.95 0.0
07 10:15 W 15 16.09 Overcast FEW050 OVC070 6 1 71% 3 75.95 0.0
07 09:55 W 13 16.09 Overcast BKN050 OVC070 5 0 70% 2 75.95 0.0
07 09:35 SW 11 16.09 Overcast SCT048 OVC070 5 1 76% 3 75.95 0.0
07 09:15 SW 13 16.09 Overcast SCT050 OVC070 5 1 76% 2 75.92 0.0
07 08:55 SW 11 16.09 Overcast SCT050 OVC070 5 0 70% 3 75.92 0.0
07 08:35 SW 9 16.09 Overcast FEW055 OVC070 4 1 81% 2 75.92 0.0
07 08:15 SW 9 16.09 Overcast FEW050 OVC070 4 0 75% 2 75.92 0.0
07 07:55 SW 6 16.09 Overcast OVC080 3 0 3 -0.3 81% 75.92 0.0
07 07:35 SE 2 16.09 Overcast OVC080 3 0 81% 75.9 0.0
07 07:15 SE 4 16.09 Overcast OVC080 2 0 87% 75.9 0.0
07 06:55 S 2 16.09 Overcast OVC080 2 -1 81% 75.87 0.0
07 06:35 S 4 16.09 Overcast OVC080 1 -1 87% 75.87 0.0
07 06:15 Vrbl 2 16.09 Overcast OVC080 2 -1 81% 75.87 0.0
07 05:55 Vrbl 2 16.09 Overcast OVC080 1 -1 87% 75.87 0.0
07 05:35 SW 4 16.09 Overcast OVC080 1 -1 87% 75.87 0.0
07 05:15 Calm 16.09 Overcast OVC080 2 -1 81% 75.9 0.0
07 04:55 SW 4 16.09 Overcast OVC080 1 -1 87% 75.9 0.0
07 04:35 SW 7 16.09 Overcast OVC080 1 -1 87% -1 75.92 0.0
07 04:15 SW 2 16.09 Overcast OVC080 1 -1 87% 75.92 0.0
07 03:55 S 4 16.09 Overcast OVC080 0 -1 93% 75.92 0.0
07 03:35 SE 2 16.09 Overcast OVC080 0 -1 93% 75.92 0.0
07 03:15 Calm 16.09 Overcast OVC080 0 -1 93% 75.95 0.0
07 02:55 E 2 16.09 Mostly Cloudy BKN080 0 -2 87% 75.95 0.0
07 02:35 Calm 16.09 Mostly Cloudy BKN080 0 -2 87% 75.95 0.0
07 02:15 SE 4 16.09 Mostly Cloudy BKN080 0 -2 87% 75.97 0.0
07 01:55 SE 2 16.09 Mostly Cloudy BKN080 0 -1 4.8 -0.5 93% 75.97 0.0
07 01:35 S 6 16.09 Partly Cloudy SCT080 0 -2 87% 75.97 0.0
07 01:15 SW 6 16.09 Fair CLR 1 -1 87% 76 0.0
07 00:55 W 4 16.09 Fair CLR 2 -1 81% 76 0.0
07 00:35 W 4 16.09 A Few Clouds FEW090 2 -1 81% 76 0.0
07 00:15 W 4 16.09 Partly Cloudy SCT090 2 -1 81% 76.02 0.0
06 23:55 N 9 16.09 Mostly Cloudy BKN090 3 -2 70% 1 76.02 0.0
06 23:35 W 6 16.09 Overcast OVC090 4 -2 65% 76 0.0
06 23:15 W 6 16.09 Overcast OVC090 4 -2 65% 76.02 0.0
06 22:55 SW 7 16.09 Overcast OVC090 4 -2 65% 2 76 0.0
06 22:35 W 9 16.09 Overcast FEW070 OVC090 4 -3 61% 2 76 0.0
06 22:15 W 7 16.09 Overcast SCT070 OVC090 4 -3 61% 2 76 0.0
06 21:55 W 7 16.09 Overcast OVC070 4 -3 61% 2 76 0.0
06 21:35 W 7 16.09 Overcast OVC060 4 -3 61% 2 76 0.0
06 21:15 W 7 16.09 Overcast BKN060 OVC080 4 -3 61% 2 75.97 0.0
06 20:55 W 9 16.09 Overcast BKN060 OVC080 4 -3 61% 2 75.97 0.0
06 20:35 W 9 16.09 Overcast BKN060 OVC080 4 -3 61% 2 75.97 0.0
06 20:15 W 7 16.09 Overcast BKN060 OVC080 5 -4 53% 4 75.97 0.0
06 19:55 W 7 16.09 Overcast BKN060 OVC080 5 -4 7.5 4.7 53% 4 75.97 0.0
06 19:35 W 9 16.09 Overcast BKN060 OVC080 5 -4 53% 3 75.97 0.0
06 19:15 W 9 16.09 Overcast BKN060 OVC070 5 -4 53% 3 75.97 0.0
06 18:55 W 11 16.09 Overcast BKN060 OVC070 5 -4 53% 3 75.97 0.0
06 18:35 W 9 16.09 Overcast SCT060 OVC070 5 -4 53% 3 75.97 0.0
06 18:15 W 13 16.09 Overcast FEW060 OVC070 5 -4 53% 2 75.97 0.0
06 17:55 W 13 16.09 Overcast OVC070 5 -4 53% 2 75.97 0.0
06 17:35 W 15 16.09 Overcast OVC065 6 -4 49% 3 75.97 0.0
06 17:15 W 15 16.09 Overcast OVC065 6 -4 49% 3 75.97 0.0
06 16:55 W 17 16.09 Overcast OVC065 6 -4 49% 3 75.97 0.0
06 16:35 W 19 16.09 Overcast OVC065 6 -4 49% 3 75.97 0.0
06 16:15 W 22 16.09 Overcast OVC065 6 -5 46% 2 75.97 0.0
06 15:55 W 20 16.09 Overcast OVC065 7 -4 46% 4 75.97 0.0
06 15:35 W 20 16.09 Overcast OVC065 6 -4 49% 3 75.97 0.0
06 15:15 W 22 16.09 Overcast OVC065 6 -4 49% 2 76 0.0
06 14:55 W 20 16.09 Overcast OVC065 6 -4 49% 3 75.97 0.0
Date Time (edt) Wind (kph) Vis. (km) Weather Sky Cond. Air Dwpt Max. Min. Relative Humidity Wind Chill (°C) Heat Index (°C) altimeter (cm) sea level (mb) 1 hr 3 hr 6 hr
6 hour
Temperature (ºC) Pressure Precipitation (cm)